sensor_id;sensor_type;location;lat;lon;timestamp;P1;durP1;ratioP1;P2;durP2;ratioP2
76636;SDS011;65532;52.124;5.480;2024-01-25T00:01:34;16.88;;;2.10;;
76636;SDS011;65532;52.124;5.480;2024-01-25T00:04:00;17.17;;;2.03;;
76636;SDS011;65532;52.124;5.480;2024-01-25T00:06:27;19.13;;;2.30;;
76636;SDS011;65532;52.124;5.480;2024-01-25T00:08:54;19.25;;;2.33;;
76636;SDS011;65532;52.124;5.480;2024-01-25T00:11:20;12.70;;;1.67;;
76636;SDS011;65532;52.124;5.480;2024-01-25T00:13:47;13.30;;;2.47;;
76636;SDS011;65532;52.124;5.480;2024-01-25T00:16:13;22.67;;;2.30;;
76636;SDS011;65532;52.124;5.480;2024-01-25T00:18:40;8.48;;;1.52;;
76636;SDS011;65532;52.124;5.480;2024-01-25T00:21:07;11.43;;;1.60;;
76636;SDS011;65532;52.124;5.480;2024-01-25T00:23:33;10.48;;;1.90;;
76636;SDS011;65532;52.124;5.480;2024-01-25T00:26:00;9.05;;;1.02;;
76636;SDS011;65532;52.124;5.480;2024-01-25T00:28:26;14.15;;;2.00;;
76636;SDS011;65532;52.124;5.480;2024-01-25T00:30:54;16.52;;;1.75;;
76636;SDS011;65532;52.124;5.480;2024-01-25T00:33:21;19.05;;;2.08;;
76636;SDS011;65532;52.124;5.480;2024-01-25T00:35:48;12.52;;;1.73;;
76636;SDS011;65532;52.124;5.480;2024-01-25T00:38:15;13.38;;;2.25;;
76636;SDS011;65532;52.124;5.480;2024-01-25T00:40:42;9.90;;;1.42;;
76636;SDS011;65532;52.124;5.480;2024-01-25T00:43:08;12.80;;;2.35;;
76636;SDS011;65532;52.124;5.480;2024-01-25T00:45:35;16.83;;;1.85;;
76636;SDS011;65532;52.124;5.480;2024-01-25T00:48:02;14.27;;;2.60;;
76636;SDS011;65532;52.124;5.480;2024-01-25T00:50:30;17.25;;;1.98;;
76636;SDS011;65532;52.124;5.480;2024-01-25T00:52:57;14.73;;;1.73;;
76636;SDS011;65532;52.124;5.480;2024-01-25T00:55:24;7.18;;;1.13;;
76636;SDS011;65532;52.124;5.480;2024-01-25T00:57:50;11.85;;;1.65;;
76636;SDS011;65532;52.124;5.480;2024-01-25T01:00:18;13.27;;;2.38;;
76636;SDS011;65532;52.124;5.480;2024-01-25T01:02:45;9.10;;;1.55;;
76636;SDS011;65532;52.124;5.480;2024-01-25T01:05:13;12.07;;;1.65;;
76636;SDS011;65532;52.124;5.480;2024-01-25T01:07:41;11.77;;;1.35;;
76636;SDS011;65532;52.124;5.480;2024-01-25T01:10:08;11.45;;;1.45;;
76636;SDS011;65532;52.124;5.480;2024-01-25T01:12:36;9.25;;;1.88;;
76636;SDS011;65532;52.124;5.480;2024-01-25T01:15:03;14.52;;;2.17;;
76636;SDS011;65532;52.124;5.480;2024-01-25T01:17:30;14.52;;;1.98;;
76636;SDS011;65532;52.124;5.480;2024-01-25T01:19:57;13.63;;;2.03;;
76636;SDS011;65532;52.124;5.480;2024-01-25T01:22:24;14.95;;;1.75;;
76636;SDS011;65532;52.124;5.480;2024-01-25T01:24:51;15.70;;;2.47;;
76636;SDS011;65532;52.124;5.480;2024-01-25T01:27:17;12.27;;;2.35;;
76636;SDS011;65532;52.124;5.480;2024-01-25T01:29:44;12.63;;;1.60;;
76636;SDS011;65532;52.124;5.480;2024-01-25T01:32:10;9.77;;;2.60;;
76636;SDS011;65532;52.124;5.480;2024-01-25T01:34:37;10.90;;;1.90;;
76636;SDS011;65532;52.124;5.480;2024-01-25T01:37:04;17.55;;;2.45;;
76636;SDS011;65532;52.124;5.480;2024-01-25T01:39:31;12.40;;;1.60;;
76636;SDS011;65532;52.124;5.480;2024-01-25T01:41:57;15.30;;;1.70;;
76636;SDS011;65532;52.124;5.480;2024-01-25T01:44:24;13.82;;;3.13;;
76636;SDS011;65532;52.124;5.480;2024-01-25T01:46:50;13.77;;;2.25;;
76636;SDS011;65532;52.124;5.480;2024-01-25T01:49:17;11.98;;;2.15;;
76636;SDS011;65532;52.124;5.480;2024-01-25T01:51:45;19.17;;;2.70;;
76636;SDS011;65532;52.124;5.480;2024-01-25T01:54:12;15.80;;;2.28;;
76636;SDS011;65532;52.124;5.480;2024-01-25T01:56:39;14.23;;;1.40;;
76636;SDS011;65532;52.124;5.480;2024-01-25T01:59:11;17.65;;;1.88;;
76636;SDS011;65532;52.124;5.480;2024-01-25T02:01:38;12.63;;;2.15;;
76636;SDS011;65532;52.124;5.480;2024-01-25T02:04:05;10.15;;;1.38;;
76636;SDS011;65532;52.124;5.480;2024-01-25T02:06:31;13.60;;;1.75;;
76636;SDS011;65532;52.124;5.480;2024-01-25T02:08:59;11.82;;;1.70;;
76636;SDS011;65532;52.124;5.480;2024-01-25T02:11:25;7.07;;;1.30;;
76636;SDS011;65532;52.124;5.480;2024-01-25T02:13:52;14.50;;;1.60;;
76636;SDS011;65532;52.124;5.480;2024-01-25T02:16:19;13.25;;;1.90;;
76636;SDS011;65532;52.124;5.480;2024-01-25T02:18:46;8.70;;;1.80;;
76636;SDS011;65532;52.124;5.480;2024-01-25T02:21:14;13.70;;;3.20;;
76636;SDS011;65532;52.124;5.480;2024-01-25T02:23:41;7.47;;;1.45;;
76636;SDS011;65532;52.124;5.480;2024-01-25T02:26:07;10.32;;;1.83;;
76636;SDS011;65532;52.124;5.480;2024-01-25T02:28:34;14.48;;;1.77;;
76636;SDS011;65532;52.124;5.480;2024-01-25T02:31:01;7.88;;;1.55;;
76636;SDS011;65532;52.124;5.480;2024-01-25T02:33:28;10.75;;;1.90;;
76636;SDS011;65532;52.124;5.480;2024-01-25T02:35:55;13.50;;;1.40;;
76636;SDS011;65532;52.124;5.480;2024-01-25T02:38:22;9.52;;;1.45;;
76636;SDS011;65532;52.124;5.480;2024-01-25T02:40:49;12.77;;;1.52;;
76636;SDS011;65532;52.124;5.480;2024-01-25T02:43:17;12.10;;;1.50;;
76636;SDS011;65532;52.124;5.480;2024-01-25T02:45:43;12.63;;;2.08;;
76636;SDS011;65532;52.124;5.480;2024-01-25T02:48:10;15.02;;;1.77;;
76636;SDS011;65532;52.124;5.480;2024-01-25T02:50:37;11.30;;;1.52;;
76636;SDS011;65532;52.124;5.480;2024-01-25T02:53:03;7.07;;;1.73;;
76636;SDS011;65532;52.124;5.480;2024-01-25T02:55:31;13.82;;;1.83;;
76636;SDS011;65532;52.124;5.480;2024-01-25T02:57:58;6.03;;;1.67;;
76636;SDS011;65532;52.124;5.480;2024-01-25T03:00:24;18.80;;;2.97;;
76636;SDS011;65532;52.124;5.480;2024-01-25T03:02:51;8.52;;;1.40;;
76636;SDS011;65532;52.124;5.480;2024-01-25T03:05:17;13.02;;;2.08;;
76636;SDS011;65532;52.124;5.480;2024-01-25T03:07:44;15.23;;;2.17;;
76636;SDS011;65532;52.124;5.480;2024-01-25T03:10:12;6.40;;;2.08;;
76636;SDS011;65532;52.124;5.480;2024-01-25T03:12:40;11.50;;;1.95;;
76636;SDS011;65532;52.124;5.480;2024-01-25T03:15:07;8.88;;;1.15;;
76636;SDS011;65532;52.124;5.480;2024-01-25T03:17:34;20.95;;;1.42;;
76636;SDS011;65532;52.124;5.480;2024-01-25T03:20:00;7.85;;;1.25;;
76636;SDS011;65532;52.124;5.480;2024-01-25T03:22:27;9.02;;;1.42;;
76636;SDS011;65532;52.124;5.480;2024-01-25T03:24:54;14.25;;;1.65;;
76636;SDS011;65532;52.124;5.480;2024-01-25T03:27:20;14.63;;;1.70;;
76636;SDS011;65532;52.124;5.480;2024-01-25T03:29:47;11.50;;;2.17;;
76636;SDS011;65532;52.124;5.480;2024-01-25T03:32:13;12.63;;;1.35;;
76636;SDS011;65532;52.124;5.480;2024-01-25T03:34:40;10.73;;;0.95;;
76636;SDS011;65532;52.124;5.480;2024-01-25T03:37:07;16.75;;;1.92;;
76636;SDS011;65532;52.124;5.480;2024-01-25T03:39:34;8.80;;;1.95;;
76636;SDS011;65532;52.124;5.480;2024-01-25T03:42:00;12.25;;;2.20;;
76636;SDS011;65532;52.124;5.480;2024-01-25T03:44:27;9.57;;;1.15;;
76636;SDS011;65532;52.124;5.480;2024-01-25T03:46:54;6.53;;;1.75;;
76636;SDS011;65532;52.124;5.480;2024-01-25T03:49:20;11.27;;;1.50;;
76636;SDS011;65532;52.124;5.480;2024-01-25T03:51:49;16.23;;;2.10;;
76636;SDS011;65532;52.124;5.480;2024-01-25T03:54:16;11.80;;;1.13;;
76636;SDS011;65532;52.124;5.480;2024-01-25T03:56:43;4.18;;;0.63;;
76636;SDS011;65532;52.124;5.480;2024-01-25T03:59:09;12.85;;;1.42;;
76636;SDS011;65532;52.124;5.480;2024-01-25T04:01:42;8.52;;;2.15;;
76636;SDS011;65532;52.124;5.480;2024-01-25T04:04:10;15.30;;;1.83;;
76636;SDS011;65532;52.124;5.480;2024-01-25T04:06:38;11.50;;;1.80;;
76636;SDS011;65532;52.124;5.480;2024-01-25T04:09:15;12.52;;;2.42;;
76636;SDS011;65532;52.124;5.480;2024-01-25T04:11:41;15.75;;;1.80;;
76636;SDS011;65532;52.124;5.480;2024-01-25T04:14:08;18.20;;;1.80;;
76636;SDS011;65532;52.124;5.480;2024-01-25T04:16:34;8.00;;;1.63;;
76636;SDS011;65532;52.124;5.480;2024-01-25T04:19:01;10.50;;;1.67;;
76636;SDS011;65532;52.124;5.480;2024-01-25T04:21:28;9.10;;;1.17;;
76636;SDS011;65532;52.124;5.480;2024-01-25T04:23:54;14.25;;;1.35;;
76636;SDS011;65532;52.124;5.480;2024-01-25T04:26:21;11.57;;;2.03;;
76636;SDS011;65532;52.124;5.480;2024-01-25T04:28:48;10.70;;;1.63;;
76636;SDS011;65532;52.124;5.480;2024-01-25T04:31:16;6.45;;;1.02;;
76636;SDS011;65532;52.124;5.480;2024-01-25T04:33:42;10.95;;;0.90;;
76636;SDS011;65532;52.124;5.480;2024-01-25T04:36:14;16.67;;;1.95;;
76636;SDS011;65532;52.124;5.480;2024-01-25T04:38:40;12.43;;;2.20;;
76636;SDS011;65532;52.124;5.480;2024-01-25T04:41:07;8.38;;;1.23;;
76636;SDS011;65532;52.124;5.480;2024-01-25T04:43:34;6.65;;;1.90;;
76636;SDS011;65532;52.124;5.480;2024-01-25T04:46:02;21.75;;;2.28;;
76636;SDS011;65532;52.124;5.480;2024-01-25T04:48:29;13.70;;;2.30;;
76636;SDS011;65532;52.124;5.480;2024-01-25T04:50:57;10.65;;;1.35;;
76636;SDS011;65532;52.124;5.480;2024-01-25T04:53:26;10.48;;;1.75;;
76636;SDS011;65532;52.124;5.480;2024-01-25T04:55:56;10.55;;;1.95;;
76636;SDS011;65532;52.124;5.480;2024-01-25T04:58:23;14.40;;;1.92;;
76636;SDS011;65532;52.124;5.480;2024-01-25T05:00:50;9.27;;;0.88;;
76636;SDS011;65532;52.124;5.480;2024-01-25T05:03:21;11.57;;;1.52;;
76636;SDS011;65532;52.124;5.480;2024-01-25T05:05:48;7.20;;;1.17;;
76636;SDS011;65532;52.124;5.480;2024-01-25T05:08:14;19.15;;;2.20;;
76636;SDS011;65532;52.124;5.480;2024-01-25T05:10:41;15.63;;;1.77;;
76636;SDS011;65532;52.124;5.480;2024-01-25T05:13:08;10.90;;;1.48;;
76636;SDS011;65532;52.124;5.480;2024-01-25T05:15:35;10.57;;;1.33;;
76636;SDS011;65532;52.124;5.480;2024-01-25T05:18:02;5.65;;;1.85;;
76636;SDS011;65532;52.124;5.480;2024-01-25T05:20:29;5.63;;;0.73;;
76636;SDS011;65532;52.124;5.480;2024-01-25T05:23:00;7.15;;;0.70;;
76636;SDS011;65532;52.124;5.480;2024-01-25T05:25:27;15.52;;;2.25;;
76636;SDS011;65532;52.124;5.480;2024-01-25T05:27:54;6.15;;;2.10;;
76636;SDS011;65532;52.124;5.480;2024-01-25T05:30:22;7.60;;;1.70;;
76636;SDS011;65532;52.124;5.480;2024-01-25T05:32:49;10.00;;;2.47;;
76636;SDS011;65532;52.124;5.480;2024-01-25T05:35:16;13.35;;;1.98;;
76636;SDS011;65532;52.124;5.480;2024-01-25T05:37:43;12.68;;;1.40;;
76636;SDS011;65532;52.124;5.480;2024-01-25T05:40:10;17.45;;;1.80;;
76636;SDS011;65532;52.124;5.480;2024-01-25T05:42:37;14.48;;;2.25;;
76636;SDS011;65532;52.124;5.480;2024-01-25T05:45:04;8.75;;;1.80;;
76636;SDS011;65532;52.124;5.480;2024-01-25T05:47:31;18.85;;;1.90;;
76636;SDS011;65532;52.124;5.480;2024-01-25T05:49:58;7.78;;;1.58;;
76636;SDS011;65532;52.124;5.480;2024-01-25T05:52:25;7.82;;;2.33;;
76636;SDS011;65532;52.124;5.480;2024-01-25T05:54:52;12.43;;;2.08;;
76636;SDS011;65532;52.124;5.480;2024-01-25T05:57:18;5.28;;;1.30;;
76636;SDS011;65532;52.124;5.480;2024-01-25T05:59:46;9.60;;;1.67;;
76636;SDS011;65532;52.124;5.480;2024-01-25T06:02:12;6.05;;;1.48;;
76636;SDS011;65532;52.124;5.480;2024-01-25T06:04:39;8.75;;;1.92;;
76636;SDS011;65532;52.124;5.480;2024-01-25T06:07:06;6.25;;;1.65;;
76636;SDS011;65532;52.124;5.480;2024-01-25T06:09:33;12.68;;;1.95;;
76636;SDS011;65532;52.124;5.480;2024-01-25T06:11:59;9.57;;;1.77;;
76636;SDS011;65532;52.124;5.480;2024-01-25T06:14:26;10.10;;;1.40;;
76636;SDS011;65532;52.124;5.480;2024-01-25T06:16:52;6.90;;;2.25;;
76636;SDS011;65532;52.124;5.480;2024-01-25T06:19:19;8.38;;;1.55;;
76636;SDS011;65532;52.124;5.480;2024-01-25T06:21:45;5.18;;;0.90;;
76636;SDS011;65532;52.124;5.480;2024-01-25T06:24:12;8.38;;;0.80;;
76636;SDS011;65532;52.124;5.480;2024-01-25T06:26:38;8.93;;;1.08;;
76636;SDS011;65532;52.124;5.480;2024-01-25T06:29:05;13.27;;;1.58;;
76636;SDS011;65532;52.124;5.480;2024-01-25T06:31:31;11.25;;;1.70;;
76636;SDS011;65532;52.124;5.480;2024-01-25T06:33:58;8.25;;;1.70;;
76636;SDS011;65532;52.124;5.480;2024-01-25T06:36:25;10.85;;;1.38;;
76636;SDS011;65532;52.124;5.480;2024-01-25T06:38:52;23.02;;;8.68;;
76636;SDS011;65532;52.124;5.480;2024-01-25T06:41:19;21.13;;;8.27;;
76636;SDS011;65532;52.124;5.480;2024-01-25T06:43:45;12.15;;;3.25;;
76636;SDS011;65532;52.124;5.480;2024-01-25T06:46:12;9.65;;;1.92;;
76636;SDS011;65532;52.124;5.480;2024-01-25T06:48:38;10.15;;;1.63;;
76636;SDS011;65532;52.124;5.480;2024-01-25T06:51:05;9.82;;;1.65;;
76636;SDS011;65532;52.124;5.480;2024-01-25T06:53:32;12.07;;;1.42;;
76636;SDS011;65532;52.124;5.480;2024-01-25T06:55:58;5.22;;;1.77;;
76636;SDS011;65532;52.124;5.480;2024-01-25T06:58:25;14.35;;;2.33;;
76636;SDS011;65532;52.124;5.480;2024-01-25T07:00:52;18.05;;;2.03;;
76636;SDS011;65532;52.124;5.480;2024-01-25T07:03:19;15.93;;;3.45;;
76636;SDS011;65532;52.124;5.480;2024-01-25T07:05:46;12.73;;;1.63;;
76636;SDS011;65532;52.124;5.480;2024-01-25T07:08:13;8.68;;;2.20;;
76636;SDS011;65532;52.124;5.480;2024-01-25T07:10:40;14.80;;;2.35;;
76636;SDS011;65532;52.124;5.480;2024-01-25T07:13:06;14.75;;;1.65;;
76636;SDS011;65532;52.124;5.480;2024-01-25T07:15:33;10.60;;;2.90;;
76636;SDS011;65532;52.124;5.480;2024-01-25T07:18:00;12.90;;;2.63;;
76636;SDS011;65532;52.124;5.480;2024-01-25T07:20:27;9.68;;;1.85;;
76636;SDS011;65532;52.124;5.480;2024-01-25T07:22:54;13.13;;;2.13;;
76636;SDS011;65532;52.124;5.480;2024-01-25T07:25:20;15.50;;;2.00;;
76636;SDS011;65532;52.124;5.480;2024-01-25T07:27:47;17.00;;;2.72;;
76636;SDS011;65532;52.124;5.480;2024-01-25T07:30:16;11.20;;;3.03;;
76636;SDS011;65532;52.124;5.480;2024-01-25T07:32:42;7.32;;;2.60;;
76636;SDS011;65532;52.124;5.480;2024-01-25T07:35:09;12.65;;;2.53;;
76636;SDS011;65532;52.124;5.480;2024-01-25T07:37:36;11.30;;;3.08;;
76636;SDS011;65532;52.124;5.480;2024-01-25T07:40:03;8.57;;;2.45;;
76636;SDS011;65532;52.124;5.480;2024-01-25T07:42:30;12.13;;;3.45;;
76636;SDS011;65532;52.124;5.480;2024-01-25T07:44:57;18.55;;;2.95;;
76636;SDS011;65532;52.124;5.480;2024-01-25T07:47:24;9.70;;;2.65;;
76636;SDS011;65532;52.124;5.480;2024-01-25T07:49:51;8.48;;;2.80;;
76636;SDS011;65532;52.124;5.480;2024-01-25T07:52:18;8.88;;;3.25;;
76636;SDS011;65532;52.124;5.480;2024-01-25T07:54:44;10.32;;;2.88;;
76636;SDS011;65532;52.124;5.480;2024-01-25T07:57:11;9.18;;;2.75;;
76636;SDS011;65532;52.124;5.480;2024-01-25T07:59:38;13.02;;;3.50;;
76636;SDS011;65532;52.124;5.480;2024-01-25T08:02:04;8.23;;;3.40;;
76636;SDS011;65532;52.124;5.480;2024-01-25T08:04:31;22.02;;;4.80;;
76636;SDS011;65532;52.124;5.480;2024-01-25T08:06:58;14.00;;;3.83;;
76636;SDS011;65532;52.124;5.480;2024-01-25T08:09:25;16.80;;;3.13;;
76636;SDS011;65532;52.124;5.480;2024-01-25T08:11:51;11.95;;;2.80;;
76636;SDS011;65532;52.124;5.480;2024-01-25T08:14:18;11.20;;;3.80;;
76636;SDS011;65532;52.124;5.480;2024-01-25T08:16:45;16.42;;;3.67;;
76636;SDS011;65532;52.124;5.480;2024-01-25T08:19:11;17.58;;;3.30;;
76636;SDS011;65532;52.124;5.480;2024-01-25T08:21:38;18.88;;;2.58;;
76636;SDS011;65532;52.124;5.480;2024-01-25T08:24:05;10.38;;;2.45;;
76636;SDS011;65532;52.124;5.480;2024-01-25T08:26:31;11.60;;;1.90;;
76636;SDS011;65532;52.124;5.480;2024-01-25T08:28:58;17.15;;;1.92;;
76636;SDS011;65532;52.124;5.480;2024-01-25T08:31:24;15.52;;;2.33;;
76636;SDS011;65532;52.124;5.480;2024-01-25T08:33:51;15.27;;;2.50;;
76636;SDS011;65532;52.124;5.480;2024-01-25T08:36:18;10.18;;;2.33;;
76636;SDS011;65532;52.124;5.480;2024-01-25T08:41:15;18.77;;;2.83;;
76636;SDS011;65532;52.124;5.480;2024-01-25T08:43:42;12.38;;;3.05;;
76636;SDS011;65532;52.124;5.480;2024-01-25T08:46:08;11.50;;;1.83;;
76636;SDS011;65532;52.124;5.480;2024-01-25T08:48:35;9.70;;;2.25;;
76636;SDS011;65532;52.124;5.480;2024-01-25T08:51:02;10.00;;;2.28;;
76636;SDS011;65532;52.124;5.480;2024-01-25T08:53:30;11.05;;;3.58;;
76636;SDS011;65532;52.124;5.480;2024-01-25T08:55:56;15.10;;;2.80;;
76636;SDS011;65532;52.124;5.480;2024-01-25T08:58:23;11.00;;;2.47;;
76636;SDS011;65532;52.124;5.480;2024-01-25T09:00:50;12.98;;;2.78;;
76636;SDS011;65532;52.124;5.480;2024-01-25T09:03:16;9.05;;;1.38;;
76636;SDS011;65532;52.124;5.480;2024-01-25T09:05:43;11.32;;;2.72;;
76636;SDS011;65532;52.124;5.480;2024-01-25T09:08:13;15.65;;;3.08;;
76636;SDS011;65532;52.124;5.480;2024-01-25T09:10:40;10.10;;;2.50;;
76636;SDS011;65532;52.124;5.480;2024-01-25T09:13:08;8.88;;;2.50;;
76636;SDS011;65532;52.124;5.480;2024-01-25T09:15:35;16.52;;;2.80;;
76636;SDS011;65532;52.124;5.480;2024-01-25T09:18:02;16.90;;;3.45;;
76636;SDS011;65532;52.124;5.480;2024-01-25T09:20:29;13.45;;;2.60;;
76636;SDS011;65532;52.124;5.480;2024-01-25T09:22:56;15.38;;;2.72;;
76636;SDS011;65532;52.124;5.480;2024-01-25T09:25:23;12.85;;;2.20;;
76636;SDS011;65532;52.124;5.480;2024-01-25T09:27:50;9.30;;;2.15;;
76636;SDS011;65532;52.124;5.480;2024-01-25T09:30:17;17.50;;;2.50;;
76636;SDS011;65532;52.124;5.480;2024-01-25T09:32:44;13.55;;;2.63;;
76636;SDS011;65532;52.124;5.480;2024-01-25T09:35:12;12.15;;;2.40;;
76636;SDS011;65532;52.124;5.480;2024-01-25T09:37:39;11.00;;;2.70;;
76636;SDS011;65532;52.124;5.480;2024-01-25T09:40:06;11.00;;;1.65;;
76636;SDS011;65532;52.124;5.480;2024-01-25T09:42:33;12.00;;;2.63;;
76636;SDS011;65532;52.124;5.480;2024-01-25T09:45:02;19.83;;;3.00;;
76636;SDS011;65532;52.124;5.480;2024-01-25T09:47:34;16.67;;;2.58;;
76636;SDS011;65532;52.124;5.480;2024-01-25T09:50:01;12.40;;;2.65;;
76636;SDS011;65532;52.124;5.480;2024-01-25T09:52:28;12.65;;;3.28;;
76636;SDS011;65532;52.124;5.480;2024-01-25T09:54:57;15.27;;;2.50;;
76636;SDS011;65532;52.124;5.480;2024-01-25T09:57:24;18.63;;;3.53;;
76636;SDS011;65532;52.124;5.480;2024-01-25T09:59:54;19.50;;;2.92;;
76636;SDS011;65532;52.124;5.480;2024-01-25T10:02:24;12.73;;;2.45;;
76636;SDS011;65532;52.124;5.480;2024-01-25T10:04:51;7.40;;;2.70;;
76636;SDS011;65532;52.124;5.480;2024-01-25T10:07:39;10.02;;;1.92;;
76636;SDS011;65532;52.124;5.480;2024-01-25T10:10:08;14.43;;;2.85;;
76636;SDS011;65532;52.124;5.480;2024-01-25T10:12:36;18.80;;;2.55;;
76636;SDS011;65532;52.124;5.480;2024-01-25T10:15:03;16.90;;;3.78;;
76636;SDS011;65532;52.124;5.480;2024-01-25T10:17:31;12.00;;;2.65;;
76636;SDS011;65532;52.124;5.480;2024-01-25T10:20:17;17.70;;;3.00;;
76636;SDS011;65532;52.124;5.480;2024-01-25T10:22:47;27.05;;;3.95;;
76636;SDS011;65532;52.124;5.480;2024-01-25T10:25:14;15.63;;;3.17;;
76636;SDS011;65532;52.124;5.480;2024-01-25T10:27:41;13.85;;;2.65;;
76636;SDS011;65532;52.124;5.480;2024-01-25T10:30:09;18.17;;;2.38;;
76636;SDS011;65532;52.124;5.480;2024-01-25T10:32:37;19.02;;;2.78;;
76636;SDS011;65532;52.124;5.480;2024-01-25T10:35:04;15.25;;;2.35;;
76636;SDS011;65532;52.124;5.480;2024-01-25T10:37:31;12.75;;;2.55;;
76636;SDS011;65532;52.124;5.480;2024-01-25T10:39:59;15.80;;;3.00;;
76636;SDS011;65532;52.124;5.480;2024-01-25T10:42:27;18.50;;;3.55;;
76636;SDS011;65532;52.124;5.480;2024-01-25T10:44:53;12.82;;;2.92;;
76636;SDS011;65532;52.124;5.480;2024-01-25T10:47:20;7.32;;;2.22;;
76636;SDS011;65532;52.124;5.480;2024-01-25T10:49:47;9.05;;;2.55;;
76636;SDS011;65532;52.124;5.480;2024-01-25T10:52:16;13.48;;;3.15;;
76636;SDS011;65532;52.124;5.480;2024-01-25T10:54:42;15.07;;;2.53;;
76636;SDS011;65532;52.124;5.480;2024-01-25T10:57:09;17.63;;;4.13;;
76636;SDS011;65532;52.124;5.480;2024-01-25T10:59:36;11.85;;;2.90;;
76636;SDS011;65532;52.124;5.480;2024-01-25T11:02:02;13.07;;;2.45;;
76636;SDS011;65532;52.124;5.480;2024-01-25T11:04:30;13.65;;;2.95;;
76636;SDS011;65532;52.124;5.480;2024-01-25T11:07:04;15.52;;;3.75;;
76636;SDS011;65532;52.124;5.480;2024-01-25T11:09:33;12.45;;;3.25;;
76636;SDS011;65532;52.124;5.480;2024-01-25T11:12:11;15.52;;;3.30;;
76636;SDS011;65532;52.124;5.480;2024-01-25T11:14:39;15.40;;;3.22;;
76636;SDS011;65532;52.124;5.480;2024-01-25T11:17:24;12.15;;;2.78;;
76636;SDS011;65532;52.124;5.480;2024-01-25T11:19:50;13.32;;;3.83;;
76636;SDS011;65532;52.124;5.480;2024-01-25T11:22:17;13.30;;;3.70;;
76636;SDS011;65532;52.124;5.480;2024-01-25T11:24:44;17.83;;;3.20;;
76636;SDS011;65532;52.124;5.480;2024-01-25T11:27:12;18.33;;;2.42;;
76636;SDS011;65532;52.124;5.480;2024-01-25T11:29:40;12.98;;;2.47;;
76636;SDS011;65532;52.124;5.480;2024-01-25T11:32:09;19.65;;;3.33;;
76636;SDS011;65532;52.124;5.480;2024-01-25T11:34:36;26.30;;;4.18;;
76636;SDS011;65532;52.124;5.480;2024-01-25T11:37:03;14.48;;;2.67;;
76636;SDS011;65532;52.124;5.480;2024-01-25T11:39:30;10.93;;;2.85;;
76636;SDS011;65532;52.124;5.480;2024-01-25T11:41:58;16.25;;;3.78;;
76636;SDS011;65532;52.124;5.480;2024-01-25T11:44:25;19.20;;;2.70;;
76636;SDS011;65532;52.124;5.480;2024-01-25T11:46:53;17.65;;;3.17;;
76636;SDS011;65532;52.124;5.480;2024-01-25T11:49:23;16.90;;;4.30;;
76636;SDS011;65532;52.124;5.480;2024-01-25T11:51:50;16.90;;;3.15;;
76636;SDS011;65532;52.124;5.480;2024-01-25T11:54:17;18.55;;;3.70;;
76636;SDS011;65532;52.124;5.480;2024-01-25T11:56:44;10.65;;;2.65;;
76636;SDS011;65532;52.124;5.480;2024-01-25T11:59:11;20.80;;;3.70;;
76636;SDS011;65532;52.124;5.480;2024-01-25T12:01:38;12.98;;;2.75;;
76636;SDS011;65532;52.124;5.480;2024-01-25T12:04:07;15.55;;;3.78;;
76636;SDS011;65532;52.124;5.480;2024-01-25T12:06:34;18.85;;;4.43;;
76636;SDS011;65532;52.124;5.480;2024-01-25T12:11:38;11.63;;;2.42;;
76636;SDS011;65532;52.124;5.480;2024-01-25T12:14:07;13.60;;;3.42;;
76636;SDS011;65532;52.124;5.480;2024-01-25T12:16:34;19.17;;;3.78;;
76636;SDS011;65532;52.124;5.480;2024-01-25T12:19:04;14.48;;;3.67;;
76636;SDS011;65532;52.124;5.480;2024-01-25T12:21:32;18.50;;;4.53;;
76636;SDS011;65532;52.124;5.480;2024-01-25T12:23:59;11.50;;;3.78;;
76636;SDS011;65532;52.124;5.480;2024-01-25T12:26:26;15.48;;;3.35;;
76636;SDS011;65532;52.124;5.480;2024-01-25T12:28:52;16.77;;;3.05;;
76636;SDS011;65532;52.124;5.480;2024-01-25T12:31:19;17.67;;;6.47;;
76636;SDS011;65532;52.124;5.480;2024-01-25T12:33:45;20.95;;;4.97;;
76636;SDS011;65532;52.124;5.480;2024-01-25T12:36:12;25.70;;;4.28;;
76636;SDS011;65532;52.124;5.480;2024-01-25T12:38:39;18.25;;;3.70;;
76636;SDS011;65532;52.124;5.480;2024-01-25T12:41:06;16.33;;;4.57;;
76636;SDS011;65532;52.124;5.480;2024-01-25T12:43:32;13.32;;;5.10;;
76636;SDS011;65532;52.124;5.480;2024-01-25T12:45:59;11.77;;;4.35;;
76636;SDS011;65532;52.124;5.480;2024-01-25T12:51:13;14.80;;;3.47;;
76636;SDS011;65532;52.124;5.480;2024-01-25T12:53:40;20.83;;;3.63;;
76636;SDS011;65532;52.124;5.480;2024-01-25T12:56:06;20.75;;;4.60;;
76636;SDS011;65532;52.124;5.480;2024-01-25T12:58:33;15.95;;;3.20;;
76636;SDS011;65532;52.124;5.480;2024-01-25T13:01:00;21.85;;;3.65;;
76636;SDS011;65532;52.124;5.480;2024-01-25T13:03:27;15.25;;;3.13;;
76636;SDS011;65532;52.124;5.480;2024-01-25T13:05:53;20.80;;;4.47;;
76636;SDS011;65532;52.124;5.480;2024-01-25T13:08:20;13.48;;;4.00;;
76636;SDS011;65532;52.124;5.480;2024-01-25T13:10:47;14.88;;;4.05;;
76636;SDS011;65532;52.124;5.480;2024-01-25T13:13:13;16.48;;;4.35;;
76636;SDS011;65532;52.124;5.480;2024-01-25T13:15:40;24.73;;;3.80;;
76636;SDS011;65532;52.124;5.480;2024-01-25T13:18:06;11.82;;;3.83;;
76636;SDS011;65532;52.124;5.480;2024-01-25T13:20:33;21.95;;;4.22;;
76636;SDS011;65532;52.124;5.480;2024-01-25T13:23:00;13.63;;;2.97;;
76636;SDS011;65532;52.124;5.480;2024-01-25T13:25:26;19.30;;;4.38;;
76636;SDS011;65532;52.124;5.480;2024-01-25T13:27:53;15.73;;;5.00;;
76636;SDS011;65532;52.124;5.480;2024-01-25T13:30:20;22.00;;;4.75;;
76636;SDS011;65532;52.124;5.480;2024-01-25T13:32:46;14.13;;;4.03;;
76636;SDS011;65532;52.124;5.480;2024-01-25T13:35:13;16.52;;;3.65;;
76636;SDS011;65532;52.124;5.480;2024-01-25T13:37:39;18.85;;;5.35;;
76636;SDS011;65532;52.124;5.480;2024-01-25T13:40:06;20.02;;;4.93;;
76636;SDS011;65532;52.124;5.480;2024-01-25T13:42:33;13.85;;;3.33;;
76636;SDS011;65532;52.124;5.480;2024-01-25T13:44:59;18.42;;;4.05;;
76636;SDS011;65532;52.124;5.480;2024-01-25T13:47:26;14.07;;;4.57;;
76636;SDS011;65532;52.124;5.480;2024-01-25T13:49:52;17.10;;;3.88;;
76636;SDS011;65532;52.124;5.480;2024-01-25T13:52:19;13.45;;;3.95;;
76636;SDS011;65532;52.124;5.480;2024-01-25T13:54:47;22.20;;;5.10;;
76636;SDS011;65532;52.124;5.480;2024-01-25T13:57:16;19.30;;;4.40;;
76636;SDS011;65532;52.124;5.480;2024-01-25T13:59:43;12.75;;;4.75;;
76636;SDS011;65532;52.124;5.480;2024-01-25T14:02:09;16.88;;;4.38;;
76636;SDS011;65532;52.124;5.480;2024-01-25T14:04:36;18.95;;;3.83;;
76636;SDS011;65532;52.124;5.480;2024-01-25T14:07:02;12.88;;;3.10;;
76636;SDS011;65532;52.124;5.480;2024-01-25T14:09:29;18.92;;;4.60;;
76636;SDS011;65532;52.124;5.480;2024-01-25T14:11:56;12.52;;;4.07;;
76636;SDS011;65532;52.124;5.480;2024-01-25T14:14:23;11.85;;;4.25;;
76636;SDS011;65532;52.124;5.480;2024-01-25T14:16:50;13.48;;;3.03;;
76636;SDS011;65532;52.124;5.480;2024-01-25T14:19:17;14.25;;;3.63;;
76636;SDS011;65532;52.124;5.480;2024-01-25T14:21:47;9.95;;;2.72;;
76636;SDS011;65532;52.124;5.480;2024-01-25T14:24:35;11.95;;;4.10;;
76636;SDS011;65532;52.124;5.480;2024-01-25T14:27:01;18.13;;;3.88;;
76636;SDS011;65532;52.124;5.480;2024-01-25T14:29:29;14.90;;;4.60;;
76636;SDS011;65532;52.124;5.480;2024-01-25T14:31:59;13.23;;;4.30;;
76636;SDS011;65532;52.124;5.480;2024-01-25T14:34:26;18.85;;;4.93;;
76636;SDS011;65532;52.124;5.480;2024-01-25T14:36:53;13.55;;;3.53;;
76636;SDS011;65532;52.124;5.480;2024-01-25T14:39:20;19.63;;;4.95;;
76636;SDS011;65532;52.124;5.480;2024-01-25T14:41:46;22.17;;;6.28;;
76636;SDS011;65532;52.124;5.480;2024-01-25T14:44:13;30.38;;;5.07;;
76636;SDS011;65532;52.124;5.480;2024-01-25T14:46:40;16.48;;;4.30;;